createdAt,value
2023-03-27T00:02:42.576Z,84.5
2023-03-27T00:07:48.700Z,83.5
2023-03-27T00:12:54.810Z,83.5
2023-03-27T00:18:00.918Z,83.5
2023-03-27T00:23:07.065Z,83.5
2023-03-27T00:28:13.168Z,83.5
2023-03-27T00:33:19.288Z,82.5
2023-03-27T00:38:25.419Z,84.5
2023-03-27T00:43:31.536Z,87.5
2023-03-27T00:48:37.641Z,87.5
2023-03-27T00:53:43.783Z,86
2023-03-27T00:58:49.893Z,86
2023-03-27T01:03:55.043Z,87
2023-03-27T01:09:01.124Z,87.5
2023-03-27T01:14:07.245Z,88
2023-03-27T01:19:13.358Z,88
2023-03-27T01:24:19.473Z,87.5
2023-03-27T01:29:24.610Z,88.5
2023-03-27T01:34:30.739Z,91
2023-03-27T01:39:36.875Z,90
2023-03-27T01:44:42.951Z,89
2023-03-27T01:49:49.082Z,90.5
2023-03-27T01:54:55.202Z,90.5
2023-03-27T02:00:01.314Z,91
2023-03-27T02:05:07.434Z,92
2023-03-27T02:10:13.538Z,92
2023-03-27T02:15:19.653Z,91
2023-03-27T02:20:25.772Z,91.5
2023-03-27T02:25:31.890Z,90.5
2023-03-27T02:30:38.012Z,91
2023-03-27T02:35:43.142Z,91.5
2023-03-27T02:40:49.275Z,91
2023-03-27T02:45:55.367Z,92
2023-03-27T02:51:01.479Z,91.5
2023-03-27T02:56:07.608Z,92.5
2023-03-27T03:01:13.714Z,93
2023-03-27T03:06:19.840Z,92
2023-03-27T03:11:25.952Z,92.5
2023-03-27T03:16:32.070Z,91.5
2023-03-27T03:21:38.184Z,93
2023-03-27T03:26:44.301Z,92.5
2023-03-27T03:31:50.437Z,92
2023-03-27T03:36:56.535Z,92
2023-03-27T03:42:01.734Z,92
2023-03-27T03:47:07.809Z,93
2023-03-27T03:52:13.879Z,93.5
2023-03-27T03:57:19.998Z,94.5
2023-03-27T04:02:26.132Z,95
2023-03-27T04:07:32.233Z,96
2023-03-27T04:12:38.345Z,96.5
2023-03-27T04:17:44.503Z,97.5
2023-03-27T04:22:50.627Z,97
2023-03-27T04:27:56.701Z,97
2023-03-27T04:33:02.815Z,96.5
2023-03-27T04:38:08.932Z,97
2023-03-27T04:43:15.042Z,97
2023-03-27T04:48:20.186Z,97
2023-03-27T04:53:26.305Z,96.5
2023-03-27T04:58:32.433Z,97.5
2023-03-27T05:03:38.561Z,97.5
2023-03-27T05:08:44.646Z,98.5
2023-03-27T05:13:50.744Z,97.5
2023-03-27T05:18:56.867Z,97.5
2023-03-27T05:24:03.060Z,98
2023-03-27T05:29:09.117Z,98.5
2023-03-27T05:34:15.211Z,97.5
2023-03-27T05:39:21.339Z,97
2023-03-27T05:44:27.447Z,95.5
2023-03-27T05:49:33.578Z,95
2023-03-27T05:54:38.702Z,91
2023-03-27T05:59:44.872Z,81
2023-03-27T06:04:50.934Z,71
2023-03-27T06:09:57.137Z,69.5
2023-03-27T06:15:03.196Z,68.5
2023-03-27T06:20:09.282Z,67
2023-03-27T06:25:15.391Z,66
2023-03-27T06:30:21.575Z,72.5
2023-03-27T06:35:27.623Z,66.5
2023-03-27T06:40:33.752Z,63
2023-03-27T06:45:39.865Z,62.5
2023-03-27T06:50:46.021Z,61
2023-03-27T06:55:52.107Z,61.5
2023-03-27T07:00:57.301Z,60.5
2023-03-27T07:06:03.337Z,59.5
2023-03-27T07:11:09.503Z,60.5
2023-03-27T07:16:15.562Z,55
2023-03-27T07:21:21.677Z,58.5
2023-03-27T07:26:27.804Z,58
2023-03-27T07:31:33.911Z,55.5
2023-03-27T07:36:40.027Z,56
2023-03-27T07:41:46.173Z,53
2023-03-27T07:46:52.399Z,51.5
2023-03-27T07:51:58.582Z,55
2023-03-27T07:57:04.518Z,53
2023-03-27T08:02:10.628Z,54
2023-03-27T08:07:15.754Z,52.5
2023-03-27T08:12:21.867Z,53
2023-03-27T08:17:28.001Z,55.5
2023-03-27T08:22:34.151Z,56.5
2023-03-27T08:27:40.219Z,51.5
2023-03-27T08:32:46.349Z,51
2023-03-27T08:37:52.461Z,53
2023-03-27T08:42:58.616Z,51.5
2023-03-27T08:48:04.751Z,60.5
2023-03-27T08:53:10.820Z,57
2023-03-27T08:58:16.952Z,59.5
2023-03-27T09:03:23.069Z,62.5
2023-03-27T09:08:29.191Z,61.5
2023-03-27T09:13:34.340Z,53.5
2023-03-27T09:18:40.450Z,56.5
2023-03-27T09:23:46.574Z,58
2023-03-27T09:28:52.681Z,58
2023-03-27T09:33:58.783Z,57
2023-03-27T09:39:04.896Z,56
2023-03-27T09:44:11.016Z,54
2023-03-27T09:49:17.140Z,54
2023-03-27T09:54:23.264Z,56.5
2023-03-27T09:59:29.461Z,55
2023-03-27T10:04:35.493Z,58
2023-03-27T10:09:41.608Z,55.5
2023-03-27T10:14:47.728Z,57
2023-03-27T10:19:52.869Z,50
2023-03-27T10:24:58.948Z,49
2023-03-27T10:30:05.067Z,51
2023-03-27T10:35:11.177Z,52
2023-03-27T10:40:17.389Z,47
2023-03-27T10:45:23.577Z,49.5
2023-03-27T10:50:29.527Z,50.5
2023-03-27T10:55:35.635Z,56.5
2023-03-27T11:05:47.931Z,55
2023-03-27T11:10:53.949Z,48
2023-03-27T11:16:00.069Z,46.5
2023-03-27T11:21:06.191Z,48.5
2023-03-27T11:26:11.305Z,48
2023-03-27T11:31:17.409Z,47.5
2023-03-27T11:36:23.530Z,65.5
2023-03-27T11:41:29.633Z,81
2023-03-27T11:46:35.769Z,86
2023-03-27T11:51:41.881Z,81
2023-03-27T11:56:48.005Z,82
2023-03-27T12:01:54.182Z,80
2023-03-27T12:07:00.238Z,76
2023-03-27T12:12:06.341Z,76
2023-03-27T12:17:12.479Z,73
2023-03-27T12:22:20.006Z,78
2023-03-27T12:27:24.706Z,73
2023-03-27T12:32:29.835Z,70.5
2023-03-27T12:37:35.953Z,70.5
2023-03-27T12:42:42.052Z,71.5
2023-03-27T12:47:48.208Z,75
2023-03-27T12:52:54.309Z,69.5
2023-03-27T12:58:00.428Z,66
2023-03-27T13:03:06.519Z,60.5
2023-03-27T13:08:12.625Z,62
2023-03-27T13:13:18.752Z,63.5
2023-03-27T13:18:24.860Z,58.5
2023-03-27T13:23:30.983Z,65.5
2023-03-27T13:28:37.125Z,61.5
2023-03-27T13:33:43.194Z,63.5
2023-03-27T13:38:48.311Z,59
2023-03-27T13:43:54.428Z,56.5
2023-03-27T13:49:00.550Z,58.5
2023-03-27T13:54:06.660Z,58.5
2023-03-27T13:59:12.770Z,61.5
2023-03-27T14:04:18.883Z,61.5
2023-03-27T14:09:25.003Z,63.5
2023-03-27T14:14:31.120Z,57.5
2023-03-27T14:19:37.237Z,57.5
2023-03-27T14:24:43.379Z,55.5
2023-03-27T14:29:49.500Z,52
2023-03-27T14:34:55.650Z,50.5
2023-03-27T14:40:01.706Z,54
2023-03-27T14:45:06.892Z,57.5
2023-03-27T14:50:12.934Z,58.5
2023-03-27T14:55:19.048Z,59.5
2023-03-27T15:00:25.177Z,64
2023-03-27T15:05:31.292Z,80
2023-03-27T15:10:37.424Z,87.5
2023-03-27T15:15:43.541Z,87
2023-03-27T15:20:49.654Z,85
2023-03-27T15:25:55.800Z,86.5
2023-03-27T15:31:01.881Z,86
2023-03-27T15:36:08.008Z,87.5
2023-03-27T15:41:14.110Z,86
2023-03-27T15:46:20.229Z,86.5
2023-03-27T15:51:25.354Z,86.5
2023-03-27T15:56:31.501Z,84.5
2023-03-27T16:01:37.581Z,85.5
2023-03-27T16:06:43.727Z,84.5
2023-03-27T16:11:49.839Z,83
2023-03-27T16:16:55.921Z,81
2023-03-27T16:22:02.072Z,78.5
2023-03-27T16:27:08.174Z,77
2023-03-27T16:32:14.288Z,77.5
2023-03-27T16:37:20.397Z,78
2023-03-27T16:42:26.519Z,79.5
2023-03-27T16:47:32.662Z,78.5
2023-03-27T16:52:38.770Z,79.5
2023-03-27T16:57:43.931Z,82
2023-03-27T17:02:50.030Z,82
2023-03-27T17:07:56.193Z,81.5
2023-03-27T17:13:02.302Z,83.5
2023-03-27T17:18:08.357Z,85.5
2023-03-27T17:23:14.474Z,90.5
2023-03-27T17:28:20.590Z,93
2023-03-27T17:33:26.751Z,94
2023-03-27T17:38:32.879Z,95.5
2023-03-27T17:43:38.982Z,97
2023-03-27T17:48:45.123Z,99
2023-03-27T17:53:51.229Z,99.5
2023-03-27T17:58:57.350Z,99.5
2023-03-27T18:09:08.650Z,99.5
2023-03-27T18:14:14.701Z,99.5
2023-03-27T18:19:20.883Z,99.5
2023-03-27T18:24:26.948Z,99.5
2023-03-27T18:29:33.054Z,99.5
2023-03-27T18:34:38.194Z,99.5
2023-03-27T18:39:44.299Z,99.5
2023-03-27T18:44:50.404Z,99.5
2023-03-27T18:49:56.524Z,99.5
2023-03-27T18:55:02.662Z,99.5
2023-03-27T19:00:08.751Z,99.5
2023-03-27T19:05:14.956Z,99.5
2023-03-27T19:10:21.034Z,99.5
2023-03-27T19:15:27.200Z,99.5
2023-03-27T19:20:33.215Z,99.5
2023-03-27T19:25:39.334Z,99.5
2023-03-27T19:30:45.443Z,99.5
2023-03-27T19:35:51.608Z,99.5
2023-03-27T19:40:56.702Z,99.5
2023-03-27T19:46:02.826Z,99.5
2023-03-27T19:51:08.937Z,99.5
2023-03-27T19:56:15.067Z,99.5
2023-03-27T20:01:21.153Z,99.5
2023-03-27T20:06:27.275Z,99.5
2023-03-27T20:11:33.439Z,99
2023-03-27T20:16:39.522Z,99
2023-03-27T20:21:45.699Z,99
2023-03-27T20:26:51.775Z,98
2023-03-27T20:31:57.870Z,96.5
2023-03-27T20:37:03.981Z,96.5
2023-03-27T20:42:10.099Z,96.5
2023-03-27T20:47:15.247Z,98
2023-03-27T20:52:21.383Z,98
2023-03-27T20:57:27.461Z,97
2023-03-27T21:02:33.621Z,96
2023-03-27T21:07:39.693Z,95.5
2023-03-27T21:12:45.807Z,95
2023-03-27T21:17:51.962Z,94
2023-03-27T21:22:58.082Z,93
2023-03-27T21:33:10.364Z,92
2023-03-27T21:38:16.424Z,91
2023-03-27T21:43:22.501Z,91.5
2023-03-27T21:48:28.624Z,91
2023-03-27T21:53:33.765Z,89.5
2023-03-27T21:58:39.878Z,90
2023-03-27T22:03:46.037Z,90.5
2023-03-27T22:08:52.120Z,90.5
2023-03-27T22:13:58.284Z,89.5
2023-03-27T22:19:04.446Z,90.5
2023-03-27T22:24:10.441Z,90
2023-03-27T22:29:16.567Z,90
2023-03-27T22:34:22.697Z,90
2023-03-27T22:39:28.805Z,91
2023-03-27T22:44:34.913Z,90
2023-03-27T22:49:41.030Z,90
2023-03-27T22:54:47.189Z,90.5
2023-03-27T22:59:52.290Z,91.5
2023-03-27T23:04:58.382Z,93.5
2023-03-27T23:10:04.496Z,94.5
2023-03-27T23:15:10.638Z,98
2023-03-27T23:20:16.750Z,99.5
2023-03-27T23:25:22.863Z,99.5
2023-03-27T23:30:28.990Z,99.5
2023-03-27T23:35:35.098Z,98.5
2023-03-27T23:40:41.239Z,98
2023-03-27T23:45:47.317Z,98
2023-03-27T23:50:53.441Z,98
2023-03-27T23:55:59.552Z,97.5
